createdAt,value
2024-02-29T00:02:17.457Z,10.18
2024-02-29T00:04:44.254Z,12.00
2024-02-29T00:07:10.925Z,11.38
2024-02-29T00:09:37.798Z,11.80
2024-02-29T00:12:05.302Z,9.40
2024-02-29T00:14:32.379Z,14.32
2024-02-29T00:17:01.598Z,9.63
2024-02-29T00:19:29.021Z,12.43
2024-02-29T00:21:55.749Z,10.23
2024-02-29T00:24:22.309Z,12.63
2024-02-29T00:26:49.161Z,11.43
2024-02-29T00:29:15.692Z,11.57
2024-02-29T00:31:46.068Z,11.40
2024-02-29T00:34:13.812Z,8.95
2024-02-29T00:36:40.894Z,13.45
2024-02-29T00:39:14.538Z,11.05
2024-02-29T00:41:41.887Z,10.83
2024-02-29T00:44:08.611Z,12.35
2024-02-29T00:46:38.568Z,9.30
2024-02-29T00:49:05.873Z,11.90
2024-02-29T00:51:32.752Z,11.52
2024-02-29T00:53:59.470Z,11.40
2024-02-29T00:56:26.409Z,9.55
2024-02-29T00:58:52.965Z,14.48
2024-02-29T01:01:19.672Z,10.20
2024-02-29T01:03:46.279Z,9.27
2024-02-29T01:06:12.898Z,11.40
2024-02-29T01:08:39.616Z,9.25
2024-02-29T01:11:06.654Z,10.93
2024-02-29T01:13:33.713Z,10.88
2024-02-29T01:16:00.325Z,14.43
2024-02-29T01:18:26.843Z,11.50
2024-02-29T01:20:53.941Z,12.07
2024-02-29T01:23:20.497Z,15.32
2024-02-29T01:25:47.099Z,13.35
2024-02-29T01:28:13.743Z,12.60
2024-02-29T01:30:40.338Z,11.00
2024-02-29T01:33:06.941Z,9.65
2024-02-29T01:35:33.673Z,9.20
2024-02-29T01:38:00.191Z,10.60
2024-02-29T01:40:26.718Z,13.40
2024-02-29T01:42:53.726Z,11.80
2024-02-29T01:45:20.342Z,10.68
2024-02-29T01:47:47.023Z,8.40
2024-02-29T01:50:16.719Z,9.60
2024-02-29T01:52:45.414Z,9.25
2024-02-29T01:55:12.809Z,12.07
2024-02-29T01:57:40.382Z,15.45
2024-02-29T02:00:09.532Z,10.02
2024-02-29T02:02:39.071Z,10.80
2024-02-29T02:05:09.250Z,15.15
2024-02-29T02:07:40.889Z,11.67
2024-02-29T02:10:09.459Z,11.77
2024-02-29T02:12:36.599Z,10.98
2024-02-29T02:15:04.364Z,11.85
2024-02-29T02:17:32.915Z,8.68
2024-02-29T02:20:01.328Z,9.20
2024-02-29T02:22:28.983Z,10.68
2024-02-29T02:24:55.548Z,14.23
2024-02-29T02:27:22.431Z,10.70
2024-02-29T02:29:48.974Z,13.85
2024-02-29T02:32:15.536Z,9.80
2024-02-29T02:34:42.058Z,10.80
2024-02-29T02:37:08.766Z,11.27
2024-02-29T02:39:35.391Z,11.60
2024-02-29T02:42:02.422Z,9.82
2024-02-29T02:44:29.276Z,9.67
2024-02-29T02:46:55.802Z,12.02
2024-02-29T02:49:24.457Z,11.52
2024-02-29T02:51:51.015Z,10.13
2024-02-29T02:54:17.572Z,7.97
2024-02-29T02:56:44.068Z,8.37
2024-02-29T02:59:10.620Z,8.52
2024-02-29T03:01:38.179Z,9.07
2024-02-29T03:04:08.040Z,9.88
2024-02-29T03:06:34.666Z,13.07
2024-02-29T03:09:01.250Z,10.40
2024-02-29T03:11:27.842Z,10.32
2024-02-29T03:13:54.635Z,12.63
2024-02-29T03:16:23.626Z,12.27
2024-02-29T03:18:50.592Z,12.32
2024-02-29T03:21:17.194Z,8.87
2024-02-29T03:23:43.779Z,9.00
2024-02-29T03:26:10.507Z,10.30
2024-02-29T03:28:37.062Z,8.93
2024-02-29T03:31:05.068Z,10.20
2024-02-29T03:33:31.958Z,10.60
2024-02-29T03:35:58.558Z,8.20
2024-02-29T03:38:25.095Z,13.63
2024-02-29T03:40:53.173Z,12.55
2024-02-29T03:43:19.875Z,12.77
2024-02-29T03:45:46.528Z,11.10
2024-02-29T03:48:13.170Z,12.10
2024-02-29T03:50:39.727Z,13.65
2024-02-29T03:53:06.364Z,12.60
2024-02-29T03:55:33.185Z,11.68
2024-02-29T03:57:59.951Z,16.20
2024-02-29T04:00:26.980Z,11.57
2024-02-29T04:02:53.512Z,12.50
2024-02-29T04:05:25.098Z,11.45
2024-02-29T04:07:54.495Z,10.93
2024-02-29T04:10:21.119Z,13.13
2024-02-29T04:12:47.675Z,12.07
2024-02-29T04:15:14.330Z,11.27
2024-02-29T04:17:40.865Z,10.15
2024-02-29T04:20:09.761Z,13.52
2024-02-29T04:22:36.537Z,10.93
2024-02-29T04:25:03.229Z,11.65
2024-02-29T04:27:29.775Z,15.27
2024-02-29T04:29:56.257Z,15.85
2024-02-29T04:32:22.822Z,12.25
2024-02-29T04:34:49.359Z,18.57
2024-02-29T04:37:16.074Z,14.48
2024-02-29T04:39:42.867Z,12.23
2024-02-29T04:42:09.468Z,13.38
2024-02-29T04:44:36.011Z,13.20
2024-02-29T04:47:02.612Z,13.03
2024-02-29T04:49:29.153Z,15.15
2024-02-29T04:51:55.921Z,15.88
2024-02-29T04:54:22.484Z,14.88
2024-02-29T04:56:49.230Z,14.70
2024-02-29T04:59:15.708Z,12.50
2024-02-29T05:01:42.305Z,11.80
2024-02-29T05:04:08.944Z,14.07
2024-02-29T05:06:35.553Z,11.82
2024-02-29T05:09:02.105Z,14.27
2024-02-29T05:11:28.758Z,11.37
2024-02-29T05:13:55.448Z,12.95
2024-02-29T05:16:22.204Z,12.60
2024-02-29T05:18:49.188Z,16.23
2024-02-29T05:21:15.732Z,14.52
2024-02-29T05:23:42.233Z,15.13
2024-02-29T05:26:09.166Z,12.25
2024-02-29T05:28:35.736Z,11.50
2024-02-29T05:31:04.520Z,10.82
2024-02-29T05:33:31.208Z,16.80
2024-02-29T05:35:57.851Z,16.40
2024-02-29T05:38:24.338Z,13.23
2024-02-29T05:40:51.938Z,13.10
2024-02-29T05:43:18.584Z,13.05
2024-02-29T05:45:45.130Z,11.70
2024-02-29T05:48:11.782Z,12.43
2024-02-29T05:50:38.342Z,13.65
2024-02-29T05:53:05.347Z,14.73
2024-02-29T05:55:34.554Z,12.23
2024-02-29T05:58:01.212Z,16.50
2024-02-29T06:00:27.779Z,12.73
2024-02-29T06:02:54.345Z,13.80
2024-02-29T06:05:21.278Z,11.43
2024-02-29T06:07:47.935Z,13.32
2024-02-29T06:10:14.710Z,13.40
2024-02-29T06:12:41.601Z,12.20
2024-02-29T06:15:11.203Z,15.27
2024-02-29T06:17:39.399Z,11.00
2024-02-29T06:20:11.443Z,15.55
2024-02-29T06:22:40.676Z,13.05
2024-02-29T06:25:09.967Z,11.37
2024-02-29T06:27:37.394Z,14.35
2024-02-29T06:30:05.411Z,13.73
2024-02-29T06:32:32.126Z,12.25
2024-02-29T06:34:58.751Z,19.08
2024-02-29T06:37:25.224Z,13.97
2024-02-29T06:39:51.841Z,10.75
2024-02-29T06:42:18.736Z,12.27
2024-02-29T06:44:45.421Z,12.55
2024-02-29T06:47:11.962Z,17.00
2024-02-29T06:49:38.545Z,10.47
2024-02-29T06:52:05.463Z,11.50
2024-02-29T06:54:32.008Z,11.85
2024-02-29T06:56:58.574Z,10.15
2024-02-29T06:59:26.576Z,10.20
2024-02-29T07:01:53.205Z,10.43
2024-02-29T07:04:19.945Z,11.15
2024-02-29T07:06:46.723Z,12.57
2024-02-29T07:09:13.276Z,10.93
2024-02-29T07:11:41.667Z,13.13
2024-02-29T07:14:08.347Z,11.80
2024-02-29T07:16:37.105Z,10.98
2024-02-29T07:19:05.166Z,9.02
2024-02-29T07:21:33.253Z,12.13
2024-02-29T07:23:59.870Z,11.85
2024-02-29T07:26:27.296Z,11.97
2024-02-29T07:28:53.826Z,12.55
2024-02-29T07:31:21.422Z,9.68
2024-02-29T07:33:48.130Z,9.02
2024-02-29T07:36:14.719Z,10.63
2024-02-29T07:38:41.292Z,9.67
2024-02-29T07:41:07.781Z,13.57
2024-02-29T07:43:34.741Z,11.52
2024-02-29T07:46:01.470Z,8.90
2024-02-29T07:48:30.615Z,10.48
2024-02-29T07:50:57.316Z,12.97
2024-02-29T07:53:23.894Z,9.93
2024-02-29T07:55:50.563Z,9.73
2024-02-29T07:58:17.217Z,6.28
2024-02-29T08:00:47.729Z,12.07
2024-02-29T08:03:14.237Z,7.77
2024-02-29T08:05:40.872Z,10.23
2024-02-29T08:08:09.059Z,13.02
2024-02-29T08:10:35.586Z,10.02
2024-02-29T08:13:02.314Z,13.30
2024-02-29T08:15:28.850Z,11.80
2024-02-29T08:17:55.510Z,10.93
2024-02-29T08:20:24.814Z,9.60
2024-02-29T08:22:55.147Z,11.00
2024-02-29T08:25:27.223Z,12.75
2024-02-29T08:27:54.388Z,8.17
2024-02-29T08:30:21.457Z,7.32
2024-02-29T08:32:49.879Z,9.48
2024-02-29T08:35:17.440Z,11.73
2024-02-29T08:37:45.211Z,10.77
2024-02-29T08:40:12.162Z,8.90
2024-02-29T08:42:39.301Z,9.32
2024-02-29T08:45:07.995Z,9.32
2024-02-29T08:47:34.542Z,11.55
2024-02-29T08:50:01.055Z,10.57
2024-02-29T08:52:27.652Z,8.00
2024-02-29T08:54:54.263Z,7.82
2024-02-29T08:57:20.911Z,10.18
2024-02-29T08:59:47.436Z,11.30
2024-02-29T09:02:14.172Z,9.32
2024-02-29T09:04:40.799Z,10.33
2024-02-29T09:07:07.276Z,10.75
2024-02-29T09:09:37.743Z,8.48
2024-02-29T09:12:07.523Z,10.95
2024-02-29T09:14:34.907Z,9.25
2024-02-29T09:17:01.760Z,8.90
2024-02-29T09:19:28.348Z,9.05
2024-02-29T09:21:55.022Z,8.75
2024-02-29T09:24:22.696Z,10.13
2024-02-29T09:26:50.060Z,9.38
2024-02-29T09:29:16.631Z,7.83
2024-02-29T09:31:44.075Z,8.68
2024-02-29T09:34:10.816Z,8.00
2024-02-29T09:36:38.458Z,9.82
2024-02-29T09:39:08.112Z,8.70
2024-02-29T09:41:58.486Z,8.07
2024-02-29T09:44:21.648Z,8.35
2024-02-29T09:46:51.635Z,8.40
2024-02-29T09:49:18.440Z,8.75
2024-02-29T09:51:45.872Z,7.68
2024-02-29T09:54:18.999Z,7.40
2024-02-29T09:56:49.028Z,7.25
2024-02-29T09:59:20.153Z,7.15
2024-02-29T10:01:50.525Z,9.18
2024-02-29T10:04:17.915Z,7.43
2024-02-29T10:06:44.765Z,10.17
2024-02-29T10:09:11.542Z,7.28
2024-02-29T10:11:42.216Z,9.60
2024-02-29T10:14:27.727Z,7.72
2024-02-29T10:16:56.098Z,7.05
2024-02-29T10:19:24.026Z,9.80
2024-02-29T10:21:52.341Z,11.00
2024-02-29T10:24:20.451Z,7.25
2024-02-29T10:26:47.466Z,7.97
2024-02-29T10:29:18.137Z,7.95
2024-02-29T10:31:44.931Z,7.57
2024-02-29T10:34:12.064Z,8.40
2024-02-29T10:36:39.752Z,8.15
2024-02-29T10:39:06.523Z,5.78
2024-02-29T10:41:33.785Z,6.88
2024-02-29T10:44:07.332Z,8.87
2024-02-29T10:46:36.921Z,10.00
2024-02-29T10:49:08.345Z,5.90
2024-02-29T10:51:44.196Z,9.18
2024-02-29T10:54:20.712Z,9.40
2024-02-29T10:56:49.327Z,10.83
2024-02-29T10:59:20.283Z,8.98
2024-02-29T11:01:48.590Z,8.30
2024-02-29T11:04:18.334Z,7.75
2024-02-29T11:06:47.812Z,7.80
2024-02-29T11:09:17.183Z,8.03
2024-02-29T11:11:46.398Z,7.68
2024-02-29T11:14:14.207Z,8.68
2024-02-29T11:16:44.888Z,8.85
2024-02-29T11:19:15.974Z,9.52
2024-02-29T11:21:42.952Z,7.67
2024-02-29T11:24:10.850Z,8.43
2024-02-29T11:26:38.420Z,8.18
2024-02-29T11:29:19.941Z,8.80
2024-02-29T11:31:56.684Z,10.55
2024-02-29T11:34:23.540Z,8.47
2024-02-29T11:36:51.606Z,7.22
2024-02-29T11:39:21.965Z,7.90
2024-02-29T11:42:02.073Z,7.13
2024-02-29T11:44:28.608Z,6.50
2024-02-29T11:46:55.470Z,9.60
2024-02-29T11:49:24.090Z,9.70
2024-02-29T11:51:52.204Z,6.55
2024-02-29T11:54:19.905Z,7.70
2024-02-29T11:56:48.329Z,10.18
2024-02-29T11:59:16.868Z,7.70
2024-02-29T12:01:45.187Z,9.25
2024-02-29T12:04:12.497Z,6.82
2024-02-29T12:06:41.052Z,5.72
2024-02-29T12:09:13.926Z,5.88
2024-02-29T12:11:43.006Z,5.37
2024-02-29T12:14:09.906Z,5.38
2024-02-29T12:16:37.810Z,5.10
2024-02-29T12:19:04.701Z,6.53
2024-02-29T12:21:31.398Z,5.00
2024-02-29T12:23:58.200Z,6.20
2024-02-29T12:26:26.265Z,5.95
2024-02-29T12:28:53.183Z,5.88
2024-02-29T12:31:20.279Z,5.45
2024-02-29T12:33:48.074Z,5.03
2024-02-29T12:36:20.092Z,6.27
2024-02-29T12:38:47.517Z,6.18
2024-02-29T12:41:16.898Z,5.93
2024-02-29T12:43:49.538Z,4.95
2024-02-29T12:46:17.616Z,5.25
2024-02-29T12:48:45.022Z,5.60
2024-02-29T12:51:11.762Z,7.72
2024-02-29T12:53:38.536Z,4.55
2024-02-29T12:56:06.304Z,5.30
2024-02-29T12:58:33.406Z,4.80
2024-02-29T13:01:01.000Z,4.77
2024-02-29T13:03:28.428Z,4.32
2024-02-29T13:05:55.773Z,4.38
2024-02-29T13:08:23.364Z,4.47
2024-02-29T13:10:50.818Z,4.47
2024-02-29T13:13:18.772Z,6.70
2024-02-29T13:15:45.658Z,4.10
2024-02-29T13:18:12.290Z,5.63
2024-02-29T13:20:38.895Z,4.93
2024-02-29T13:23:05.431Z,5.68
2024-02-29T13:25:32.151Z,5.17
2024-02-29T13:27:59.143Z,6.30
2024-02-29T13:30:25.835Z,4.95
2024-02-29T13:32:52.467Z,5.05
2024-02-29T13:35:19.098Z,4.60
2024-02-29T13:37:47.773Z,5.87
2024-02-29T13:40:14.515Z,6.15
2024-02-29T13:42:43.432Z,4.65
2024-02-29T13:45:11.679Z,6.53
2024-02-29T13:47:52.285Z,5.90
2024-02-29T13:50:21.194Z,5.93
2024-02-29T13:52:48.648Z,6.60
2024-02-29T13:55:15.619Z,5.50
2024-02-29T13:57:42.363Z,6.65
2024-02-29T14:00:09.958Z,6.03
2024-02-29T14:02:36.799Z,8.10
2024-02-29T14:05:04.590Z,5.78
2024-02-29T14:07:31.124Z,6.72
2024-02-29T14:09:57.814Z,7.90
2024-02-29T14:12:26.376Z,6.80
2024-02-29T14:14:53.171Z,5.37
2024-02-29T14:17:20.778Z,8.10
2024-02-29T14:19:47.353Z,7.97
2024-02-29T14:22:15.288Z,7.28
2024-02-29T14:24:42.192Z,7.97
2024-02-29T14:27:09.266Z,6.20
2024-02-29T14:29:35.955Z,8.65
2024-02-29T14:32:02.888Z,6.28
2024-02-29T14:34:29.786Z,7.82
2024-02-29T14:36:56.827Z,8.38
2024-02-29T14:39:23.452Z,8.23
2024-02-29T14:41:50.116Z,6.50
2024-02-29T14:44:17.077Z,6.55
2024-02-29T14:46:44.283Z,7.55
2024-02-29T14:49:11.582Z,6.00
2024-02-29T14:51:38.161Z,12.27
2024-02-29T14:54:05.319Z,6.43
2024-02-29T14:56:35.193Z,7.22
2024-02-29T14:59:01.834Z,7.00
2024-02-29T15:01:28.795Z,6.32
2024-02-29T15:03:55.575Z,6.77
2024-02-29T15:06:22.292Z,9.90
2024-02-29T15:08:49.026Z,5.82
2024-02-29T15:11:15.603Z,8.23
2024-02-29T15:13:42.321Z,6.65
2024-02-29T15:16:09.289Z,7.10
2024-02-29T15:18:36.516Z,8.10
2024-02-29T15:21:03.063Z,6.57
2024-02-29T15:23:29.573Z,5.75
2024-02-29T15:25:56.785Z,6.20
2024-02-29T15:28:25.792Z,5.97
2024-02-29T15:30:52.851Z,5.38
2024-02-29T15:33:21.488Z,5.63
2024-02-29T15:35:48.683Z,5.25
2024-02-29T15:38:18.398Z,5.97
2024-02-29T15:40:47.788Z,5.10
2024-02-29T15:43:15.492Z,6.95
2024-02-29T15:45:42.272Z,5.82
2024-02-29T15:48:09.173Z,6.72
2024-02-29T15:50:35.839Z,6.13
2024-02-29T15:53:02.483Z,8.73
2024-02-29T15:55:29.457Z,6.60
2024-02-29T15:57:56.254Z,5.72
2024-02-29T16:00:25.736Z,6.63
2024-02-29T16:02:52.541Z,7.15
2024-02-29T16:05:19.548Z,8.53
2024-02-29T16:07:46.128Z,6.95
2024-02-29T16:10:13.065Z,6.78
2024-02-29T16:12:40.634Z,7.43
2024-02-29T16:15:07.929Z,6.50
2024-02-29T16:17:36.278Z,9.87
2024-02-29T16:20:03.355Z,8.55
2024-02-29T16:22:29.918Z,7.35
2024-02-29T16:24:56.636Z,7.93
2024-02-29T16:27:23.409Z,6.93
2024-02-29T16:29:49.940Z,6.10
2024-02-29T16:32:16.486Z,6.32
2024-02-29T16:34:43.057Z,7.07
2024-02-29T16:37:09.603Z,5.80
2024-02-29T16:39:36.436Z,7.72
2024-02-29T16:42:03.051Z,7.23
2024-02-29T16:44:30.708Z,5.25
2024-02-29T16:46:57.450Z,6.30
2024-02-29T16:49:24.137Z,6.35
2024-02-29T16:51:51.208Z,10.82
2024-02-29T16:54:17.744Z,9.63
2024-02-29T16:56:46.115Z,15.55
2024-02-29T16:59:13.316Z,6.32
2024-02-29T17:01:41.674Z,6.95
2024-02-29T17:04:08.478Z,6.68
2024-02-29T17:06:36.500Z,7.80
2024-02-29T17:09:04.162Z,8.02
2024-02-29T17:11:30.822Z,6.05
2024-02-29T17:13:57.721Z,6.78
2024-02-29T17:18:50.706Z,6.93
2024-02-29T17:21:18.515Z,5.68
2024-02-29T17:23:45.037Z,6.68
2024-02-29T17:26:18.270Z,5.22
2024-02-29T17:28:45.213Z,3.92
2024-02-29T17:31:11.845Z,8.97
2024-02-29T17:33:39.555Z,5.40
2024-02-29T17:36:07.356Z,6.30
2024-02-29T17:38:34.612Z,7.43
2024-02-29T17:41:01.113Z,6.97
2024-02-29T17:43:27.913Z,6.67
2024-02-29T17:45:54.624Z,8.82
2024-02-29T17:48:21.173Z,7.13
2024-02-29T17:50:47.760Z,5.10
2024-02-29T17:53:14.313Z,5.57
2024-02-29T17:55:40.835Z,7.30
2024-02-29T17:58:07.385Z,4.75
2024-02-29T18:00:34.520Z,5.60
2024-02-29T18:03:01.986Z,6.25
2024-02-29T18:05:28.604Z,5.90
2024-02-29T18:07:59.142Z,6.20
2024-02-29T18:10:29.966Z,5.47
2024-02-29T18:12:58.573Z,6.53
2024-02-29T18:15:25.318Z,5.43
2024-02-29T18:17:52.101Z,4.82
2024-02-29T18:20:18.814Z,4.57
2024-02-29T18:22:45.598Z,5.68
2024-02-29T18:25:12.924Z,5.82
2024-02-29T18:27:39.528Z,5.82
2024-02-29T18:30:06.690Z,5.13
2024-02-29T18:32:33.659Z,4.83
2024-02-29T18:35:02.050Z,5.07
2024-02-29T18:37:28.709Z,7.43
2024-02-29T18:39:55.335Z,7.50
2024-02-29T18:42:21.928Z,5.07
2024-02-29T18:44:48.898Z,5.37
2024-02-29T18:47:15.686Z,5.75
2024-02-29T18:49:42.278Z,7.20
2024-02-29T18:52:09.953Z,6.15
2024-02-29T18:54:36.669Z,6.97
2024-02-29T18:57:03.271Z,9.97
2024-02-29T18:59:30.786Z,7.43
2024-02-29T19:01:57.597Z,7.68
2024-02-29T19:04:24.583Z,6.05
2024-02-29T19:06:51.491Z,9.75
2024-02-29T19:09:18.113Z,7.73
2024-02-29T19:11:45.203Z,6.22
2024-02-29T19:14:12.249Z,6.10
2024-02-29T19:16:41.388Z,6.40
2024-02-29T19:19:10.363Z,6.07
2024-02-29T19:21:40.096Z,6.33
2024-02-29T19:24:08.523Z,7.90
2024-02-29T19:26:35.673Z,8.65
2024-02-29T19:29:02.186Z,6.68
2024-02-29T19:31:28.685Z,6.97
2024-02-29T19:33:55.245Z,7.03
2024-02-29T19:36:24.401Z,7.05
2024-02-29T19:38:52.461Z,7.18
2024-02-29T19:41:19.141Z,7.55
2024-02-29T19:43:45.645Z,6.03
2024-02-29T19:46:12.312Z,8.17
2024-02-29T19:48:38.899Z,7.68
2024-02-29T19:51:07.947Z,7.35
2024-02-29T19:53:36.841Z,8.55
2024-02-29T19:56:03.607Z,7.03
2024-02-29T19:58:30.207Z,7.83
2024-02-29T20:01:01.822Z,7.15
2024-02-29T20:03:29.398Z,8.48
2024-02-29T20:05:57.290Z,9.32
2024-02-29T20:08:25.057Z,7.85
2024-02-29T20:10:51.700Z,8.87
2024-02-29T20:13:18.354Z,9.35
2024-02-29T20:15:44.953Z,9.93
2024-02-29T20:18:11.617Z,7.63
2024-02-29T20:20:38.502Z,6.78
2024-02-29T20:23:05.156Z,8.07
2024-02-29T20:25:31.861Z,7.20
2024-02-29T20:27:59.433Z,6.82
2024-02-29T20:30:28.060Z,8.32
2024-02-29T20:32:54.944Z,8.32
2024-02-29T20:35:21.674Z,9.27
2024-02-29T20:37:48.276Z,11.60
2024-02-29T20:40:15.089Z,7.85
2024-02-29T20:42:42.015Z,7.57
2024-02-29T20:45:08.908Z,8.55
2024-02-29T20:47:35.483Z,8.60
2024-02-29T20:50:02.915Z,5.78
2024-02-29T20:52:29.698Z,11.65
2024-02-29T20:54:56.515Z,10.15
2024-02-29T20:57:24.702Z,7.90
2024-02-29T20:59:51.511Z,6.70
2024-02-29T21:02:18.131Z,12.13
2024-02-29T21:04:45.359Z,9.93
2024-02-29T21:07:12.042Z,8.45
2024-02-29T21:09:38.697Z,7.75
2024-02-29T21:12:05.470Z,9.43
2024-02-29T21:14:32.037Z,7.75
2024-02-29T21:16:58.517Z,6.88
2024-02-29T21:19:25.222Z,9.02
2024-02-29T21:21:51.874Z,8.30
2024-02-29T21:24:18.480Z,7.73
2024-02-29T21:26:44.983Z,9.32
2024-02-29T21:29:11.488Z,12.70
2024-02-29T21:31:37.987Z,8.07
2024-02-29T21:34:05.320Z,7.15
2024-02-29T21:36:32.131Z,7.13
2024-02-29T21:38:58.585Z,7.38
2024-02-29T21:41:25.191Z,9.68
2024-02-29T21:43:52.095Z,6.13
2024-02-29T21:46:18.653Z,12.82
2024-02-29T21:48:48.263Z,6.30
2024-02-29T21:51:19.229Z,8.82
2024-02-29T21:53:46.428Z,7.10
2024-02-29T21:56:13.322Z,8.45
2024-02-29T21:58:41.852Z,7.13
2024-02-29T22:01:08.850Z,8.57
2024-02-29T22:03:35.795Z,8.75
2024-02-29T22:06:02.322Z,10.70
2024-02-29T22:08:28.966Z,8.20
2024-02-29T22:10:55.586Z,8.55
2024-02-29T22:13:22.233Z,7.63
2024-02-29T22:15:49.106Z,11.77
2024-02-29T22:18:16.152Z,9.70
2024-02-29T22:20:46.776Z,9.05
2024-02-29T22:23:14.324Z,8.90
2024-02-29T22:25:41.133Z,7.07
2024-02-29T22:28:07.753Z,13.82
2024-02-29T22:30:34.336Z,6.70
2024-02-29T22:33:00.973Z,7.47
2024-02-29T22:35:27.603Z,10.13
2024-02-29T22:37:57.166Z,9.50
2024-02-29T22:40:23.771Z,8.52
2024-02-29T22:42:50.383Z,10.57
2024-02-29T22:45:16.928Z,10.68
2024-02-29T22:47:44.583Z,6.45
2024-02-29T22:50:11.689Z,8.40
2024-02-29T22:52:38.416Z,10.23
2024-02-29T22:55:06.741Z,12.13
2024-02-29T22:57:34.456Z,8.38
2024-02-29T23:00:01.752Z,8.07
2024-02-29T23:02:29.094Z,9.13
2024-02-29T23:04:55.761Z,8.05
2024-02-29T23:07:22.719Z,8.50
2024-02-29T23:09:49.816Z,10.27
2024-02-29T23:12:17.267Z,9.73
2024-02-29T23:14:45.173Z,6.43
2024-02-29T23:17:11.811Z,7.68
2024-02-29T23:19:38.263Z,9.40
2024-02-29T23:22:04.850Z,10.95
2024-02-29T23:24:31.529Z,9.68
2024-02-29T23:26:58.004Z,6.00
2024-02-29T23:29:24.534Z,6.28
2024-02-29T23:31:51.129Z,7.55
2024-02-29T23:34:19.007Z,7.32
2024-02-29T23:36:48.567Z,9.57
2024-02-29T23:39:15.195Z,9.13
2024-02-29T23:41:41.765Z,6.15
2024-02-29T23:44:09.401Z,5.57
2024-02-29T23:46:35.935Z,7.00
2024-02-29T23:49:02.686Z,6.85
2024-02-29T23:51:29.304Z,4.90
2024-02-29T23:53:55.839Z,5.50
2024-02-29T23:56:22.313Z,5.38
2024-02-29T23:58:48.859Z,6.75
